sensor_id;sensor_type;location;lat;lon;timestamp;temperature;humidity
47384;DHT22;33129;52.232;5.192;2022-10-12T00:00:52;12.20;99.90
47384;DHT22;33129;52.232;5.192;2022-10-12T00:03:19;12.30;99.90
47384;DHT22;33129;52.232;5.192;2022-10-12T00:05:45;12.50;99.90
47384;DHT22;33129;52.232;5.192;2022-10-12T00:08:11;12.40;99.90
47384;DHT22;33129;52.232;5.192;2022-10-12T00:10:41;12.20;99.90
47384;DHT22;33129;52.232;5.192;2022-10-12T00:13:09;12.40;99.90
47384;DHT22;33129;52.232;5.192;2022-10-12T00:15:37;12.50;99.90
47384;DHT22;33129;52.232;5.192;2022-10-12T00:18:03;12.50;99.90
47384;DHT22;33129;52.232;5.192;2022-10-12T00:20:29;12.60;99.90
47384;DHT22;33129;52.232;5.192;2022-10-12T00:22:55;12.20;99.90
47384;DHT22;33129;52.232;5.192;2022-10-12T00:25:21;12.30;99.90
47384;DHT22;33129;52.232;5.192;2022-10-12T00:27:46;12.30;99.90
47384;DHT22;33129;52.232;5.192;2022-10-12T00:30:12;11.80;99.90
47384;DHT22;33129;52.232;5.192;2022-10-12T00:32:38;11.90;99.90
47384;DHT22;33129;52.232;5.192;2022-10-12T00:35:04;11.80;99.90
47384;DHT22;33129;52.232;5.192;2022-10-12T00:37:30;11.80;99.90
47384;DHT22;33129;52.232;5.192;2022-10-12T00:39:56;11.80;99.90
47384;DHT22;33129;52.232;5.192;2022-10-12T00:42:22;12.00;99.90
47384;DHT22;33129;52.232;5.192;2022-10-12T00:44:49;11.50;99.90
47384;DHT22;33129;52.232;5.192;2022-10-12T00:47:34;11.50;99.90
47384;DHT22;33129;52.232;5.192;2022-10-12T00:50:29;11.90;99.90
47384;DHT22;33129;52.232;5.192;2022-10-12T00:53:04;11.60;99.90
47384;DHT22;33129;52.232;5.192;2022-10-12T00:55:48;11.70;99.90
47384;DHT22;33129;52.232;5.192;2022-10-12T00:58:16;12.00;99.90
47384;DHT22;33129;52.232;5.192;2022-10-12T01:00:42;11.90;99.90
47384;DHT22;33129;52.232;5.192;2022-10-12T01:03:10;11.90;99.90
47384;DHT22;33129;52.232;5.192;2022-10-12T01:05:40;11.80;99.90
47384;DHT22;33129;52.232;5.192;2022-10-12T01:08:05;11.60;99.90
47384;DHT22;33129;52.232;5.192;2022-10-12T01:10:31;11.90;99.90
47384;DHT22;33129;52.232;5.192;2022-10-12T01:12:57;12.10;99.90
47384;DHT22;33129;52.232;5.192;2022-10-12T01:15:32;12.00;99.90
47384;DHT22;33129;52.232;5.192;2022-10-12T01:34:51;11.40;99.90
47384;DHT22;33129;52.232;5.192;2022-10-12T01:40:11;11.60;99.90
47384;DHT22;33129;52.232;5.192;2022-10-12T01:42:40;11.40;99.90
47384;DHT22;33129;52.232;5.192;2022-10-12T01:45:13;11.70;99.90
47384;DHT22;33129;52.232;5.192;2022-10-12T01:47:44;11.30;99.90
47384;DHT22;33129;52.232;5.192;2022-10-12T01:50:13;11.30;99.90
47384;DHT22;33129;52.232;5.192;2022-10-12T01:53:08;11.20;99.90
47384;DHT22;33129;52.232;5.192;2022-10-12T02:02:02;11.50;99.90
47384;DHT22;33129;52.232;5.192;2022-10-12T02:04:47;11.30;99.90
47384;DHT22;33129;52.232;5.192;2022-10-12T02:07:36;11.30;99.90
47384;DHT22;33129;52.232;5.192;2022-10-12T02:10:08;11.40;99.90
47384;DHT22;33129;52.232;5.192;2022-10-12T02:12:41;11.40;99.90
47384;DHT22;33129;52.232;5.192;2022-10-12T02:15:10;11.30;99.90
47384;DHT22;33129;52.232;5.192;2022-10-12T02:17:38;11.10;99.90
47384;DHT22;33129;52.232;5.192;2022-10-12T02:20:09;11.30;99.90
47384;DHT22;33129;52.232;5.192;2022-10-12T02:22:36;11.30;99.90
47384;DHT22;33129;52.232;5.192;2022-10-12T02:25:10;11.30;99.90
47384;DHT22;33129;52.232;5.192;2022-10-12T02:27:41;11.20;99.90
47384;DHT22;33129;52.232;5.192;2022-10-12T02:30:08;11.20;99.90
47384;DHT22;33129;52.232;5.192;2022-10-12T02:32:49;11.40;99.90
47384;DHT22;33129;52.232;5.192;2022-10-12T02:38:13;11.30;99.90
47384;DHT22;33129;52.232;5.192;2022-10-12T02:40:49;11.20;99.90
47384;DHT22;33129;52.232;5.192;2022-10-12T02:43:21;10.90;99.90
47384;DHT22;33129;52.232;5.192;2022-10-12T02:45:50;11.10;99.90
47384;DHT22;33129;52.232;5.192;2022-10-12T02:48:20;11.20;99.90
47384;DHT22;33129;52.232;5.192;2022-10-12T02:50:50;11.10;99.90
47384;DHT22;33129;52.232;5.192;2022-10-12T02:53:19;11.20;99.90
47384;DHT22;33129;52.232;5.192;2022-10-12T02:55:48;11.30;99.90
47384;DHT22;33129;52.232;5.192;2022-10-12T02:58:15;11.10;99.90
47384;DHT22;33129;52.232;5.192;2022-10-12T03:00:41;11.10;99.90
47384;DHT22;33129;52.232;5.192;2022-10-12T03:03:07;10.90;99.90
47384;DHT22;33129;52.232;5.192;2022-10-12T03:05:32;11.20;99.90
47384;DHT22;33129;52.232;5.192;2022-10-12T03:07:58;11.30;99.90
47384;DHT22;33129;52.232;5.192;2022-10-12T03:10:24;11.20;99.90
47384;DHT22;33129;52.232;5.192;2022-10-12T03:12:50;11.20;99.90
47384;DHT22;33129;52.232;5.192;2022-10-12T03:15:16;11.00;99.90
47384;DHT22;33129;52.232;5.192;2022-10-12T03:17:41;11.20;99.90
47384;DHT22;33129;52.232;5.192;2022-10-12T03:20:07;11.30;99.90
47384;DHT22;33129;52.232;5.192;2022-10-12T03:22:33;11.10;99.90
47384;DHT22;33129;52.232;5.192;2022-10-12T03:24:59;11.30;99.90
47384;DHT22;33129;52.232;5.192;2022-10-12T03:27:25;10.90;99.90
47384;DHT22;33129;52.232;5.192;2022-10-12T03:29:51;11.10;99.90
47384;DHT22;33129;52.232;5.192;2022-10-12T03:32:17;11.20;99.90
47384;DHT22;33129;52.232;5.192;2022-10-12T03:34:43;11.40;99.90
47384;DHT22;33129;52.232;5.192;2022-10-12T03:37:09;11.20;99.90
47384;DHT22;33129;52.232;5.192;2022-10-12T03:39:34;11.50;99.90
47384;DHT22;33129;52.232;5.192;2022-10-12T03:42:00;11.30;99.90
47384;DHT22;33129;52.232;5.192;2022-10-12T03:44:26;11.00;99.90
47384;DHT22;33129;52.232;5.192;2022-10-12T03:46:52;11.00;99.90
47384;DHT22;33129;52.232;5.192;2022-10-12T03:49:17;10.90;99.90
47384;DHT22;33129;52.232;5.192;2022-10-12T03:51:43;10.80;99.90
47384;DHT22;33129;52.232;5.192;2022-10-12T03:54:09;10.80;99.90
47384;DHT22;33129;52.232;5.192;2022-10-12T03:56:34;10.80;99.90
47384;DHT22;33129;52.232;5.192;2022-10-12T03:59:00;10.60;99.90
47384;DHT22;33129;52.232;5.192;2022-10-12T04:01:26;10.80;99.90
47384;DHT22;33129;52.232;5.192;2022-10-12T04:03:52;10.60;99.90
47384;DHT22;33129;52.232;5.192;2022-10-12T04:06:17;10.90;99.90
47384;DHT22;33129;52.232;5.192;2022-10-12T04:08:43;10.60;99.90
47384;DHT22;33129;52.232;5.192;2022-10-12T04:11:09;10.50;99.90
47384;DHT22;33129;52.232;5.192;2022-10-12T04:13:35;10.60;99.90
47384;DHT22;33129;52.232;5.192;2022-10-12T04:16:03;10.50;99.90
47384;DHT22;33129;52.232;5.192;2022-10-12T04:18:29;10.60;99.90
47384;DHT22;33129;52.232;5.192;2022-10-12T04:20:55;10.80;99.90
47384;DHT22;33129;52.232;5.192;2022-10-12T04:23:21;10.50;99.90
47384;DHT22;33129;52.232;5.192;2022-10-12T04:25:47;10.50;99.90
47384;DHT22;33129;52.232;5.192;2022-10-12T04:28:13;10.70;99.90
47384;DHT22;33129;52.232;5.192;2022-10-12T04:30:38;10.40;99.90
47384;DHT22;33129;52.232;5.192;2022-10-12T04:33:04;10.20;99.90
47384;DHT22;33129;52.232;5.192;2022-10-12T04:35:30;10.30;99.90
47384;DHT22;33129;52.232;5.192;2022-10-12T04:37:56;10.60;99.90
47384;DHT22;33129;52.232;5.192;2022-10-12T04:40:22;10.50;99.90
47384;DHT22;33129;52.232;5.192;2022-10-12T04:42:47;10.60;99.90
47384;DHT22;33129;52.232;5.192;2022-10-12T04:45:13;10.30;99.90
47384;DHT22;33129;52.232;5.192;2022-10-12T04:47:39;10.40;99.90
47384;DHT22;33129;52.232;5.192;2022-10-12T04:50:05;10.40;99.90
47384;DHT22;33129;52.232;5.192;2022-10-12T04:52:32;10.30;99.90
47384;DHT22;33129;52.232;5.192;2022-10-12T04:54:58;10.50;99.90
47384;DHT22;33129;52.232;5.192;2022-10-12T04:57:23;10.40;99.90
47384;DHT22;33129;52.232;5.192;2022-10-12T04:59:49;10.30;99.90
47384;DHT22;33129;52.232;5.192;2022-10-12T05:02:15;9.90;99.90
47384;DHT22;33129;52.232;5.192;2022-10-12T05:04:41;9.90;99.90
47384;DHT22;33129;52.232;5.192;2022-10-12T05:07:07;10.10;99.90
47384;DHT22;33129;52.232;5.192;2022-10-12T05:09:32;10.20;99.90
47384;DHT22;33129;52.232;5.192;2022-10-12T05:11:58;10.10;99.90
47384;DHT22;33129;52.232;5.192;2022-10-12T05:14:24;10.20;99.90
47384;DHT22;33129;52.232;5.192;2022-10-12T05:16:50;10.10;99.90
47384;DHT22;33129;52.232;5.192;2022-10-12T05:19:15;9.90;99.90
47384;DHT22;33129;52.232;5.192;2022-10-12T05:21:41;10.10;99.90
47384;DHT22;33129;52.232;5.192;2022-10-12T05:24:07;10.00;99.90
47384;DHT22;33129;52.232;5.192;2022-10-12T05:26:33;10.10;99.90
47384;DHT22;33129;52.232;5.192;2022-10-12T05:28:59;10.30;99.90
47384;DHT22;33129;52.232;5.192;2022-10-12T05:31:25;10.40;99.90
47384;DHT22;33129;52.232;5.192;2022-10-12T05:33:50;10.30;99.90
47384;DHT22;33129;52.232;5.192;2022-10-12T05:36:16;10.20;99.90
47384;DHT22;33129;52.232;5.192;2022-10-12T05:38:42;10.30;99.90
47384;DHT22;33129;52.232;5.192;2022-10-12T05:41:08;10.10;99.90
47384;DHT22;33129;52.232;5.192;2022-10-12T05:43:33;10.10;99.90
47384;DHT22;33129;52.232;5.192;2022-10-12T05:45:59;10.40;99.90
47384;DHT22;33129;52.232;5.192;2022-10-12T05:48:25;10.30;99.90
47384;DHT22;33129;52.232;5.192;2022-10-12T05:50:52;10.00;99.90
47384;DHT22;33129;52.232;5.192;2022-10-12T05:53:19;10.20;99.90
47384;DHT22;33129;52.232;5.192;2022-10-12T05:55:53;10.10;99.90
47384;DHT22;33129;52.232;5.192;2022-10-12T05:58:21;9.80;99.90
47384;DHT22;33129;52.232;5.192;2022-10-12T06:00:47;9.90;99.90
47384;DHT22;33129;52.232;5.192;2022-10-12T06:03:13;9.90;99.90
47384;DHT22;33129;52.232;5.192;2022-10-12T06:05:39;9.70;99.90
47384;DHT22;33129;52.232;5.192;2022-10-12T06:08:04;9.90;99.90
47384;DHT22;33129;52.232;5.192;2022-10-12T06:10:30;9.60;99.90
47384;DHT22;33129;52.232;5.192;2022-10-12T06:12:56;9.80;99.90
47384;DHT22;33129;52.232;5.192;2022-10-12T06:15:22;9.70;99.90
47384;DHT22;33129;52.232;5.192;2022-10-12T06:17:47;10.00;99.90
47384;DHT22;33129;52.232;5.192;2022-10-12T06:20:13;10.00;99.90
47384;DHT22;33129;52.232;5.192;2022-10-12T06:22:39;10.40;99.90
47384;DHT22;33129;52.232;5.192;2022-10-12T06:25:05;9.90;99.90
47384;DHT22;33129;52.232;5.192;2022-10-12T06:27:31;10.30;99.90
47384;DHT22;33129;52.232;5.192;2022-10-12T06:29:56;10.30;99.90
47384;DHT22;33129;52.232;5.192;2022-10-12T06:32:22;10.20;99.90
47384;DHT22;33129;52.232;5.192;2022-10-12T06:34:48;10.40;99.90
47384;DHT22;33129;52.232;5.192;2022-10-12T06:37:14;10.40;99.90
47384;DHT22;33129;52.232;5.192;2022-10-12T06:39:39;10.40;99.90
47384;DHT22;33129;52.232;5.192;2022-10-12T06:42:05;10.60;99.90
47384;DHT22;33129;52.232;5.192;2022-10-12T06:44:33;10.00;99.90
47384;DHT22;33129;52.232;5.192;2022-10-12T06:46:58;10.70;99.90
47384;DHT22;33129;52.232;5.192;2022-10-12T06:49:24;10.70;99.90
47384;DHT22;33129;52.232;5.192;2022-10-12T06:51:50;10.50;99.90
47384;DHT22;33129;52.232;5.192;2022-10-12T06:54:16;10.50;99.90
47384;DHT22;33129;52.232;5.192;2022-10-12T06:56:42;10.70;99.90
47384;DHT22;33129;52.232;5.192;2022-10-12T06:59:10;10.80;99.90
47384;DHT22;33129;52.232;5.192;2022-10-12T07:01:37;10.80;99.90
47384;DHT22;33129;52.232;5.192;2022-10-12T07:04:04;10.50;99.90
47384;DHT22;33129;52.232;5.192;2022-10-12T07:06:29;11.00;99.90
47384;DHT22;33129;52.232;5.192;2022-10-12T07:08:55;11.00;99.90
47384;DHT22;33129;52.232;5.192;2022-10-12T07:11:22;11.10;99.90
47384;DHT22;33129;52.232;5.192;2022-10-12T07:13:47;11.20;99.90
47384;DHT22;33129;52.232;5.192;2022-10-12T07:16:14;11.00;99.90
47384;DHT22;33129;52.232;5.192;2022-10-12T07:18:40;11.30;99.90
47384;DHT22;33129;52.232;5.192;2022-10-12T07:21:06;11.40;99.90
47384;DHT22;33129;52.232;5.192;2022-10-12T07:23:34;11.30;99.90
47384;DHT22;33129;52.232;5.192;2022-10-12T07:26:00;11.20;99.90
47384;DHT22;33129;52.232;5.192;2022-10-12T07:28:26;11.40;99.90
47384;DHT22;33129;52.232;5.192;2022-10-12T07:30:52;11.40;99.90
47384;DHT22;33129;52.232;5.192;2022-10-12T07:33:18;11.40;99.90
47384;DHT22;33129;52.232;5.192;2022-10-12T07:35:52;11.40;99.90
47384;DHT22;33129;52.232;5.192;2022-10-12T07:38:19;11.60;99.90
47384;DHT22;33129;52.232;5.192;2022-10-12T07:40:45;11.70;99.90
47384;DHT22;33129;52.232;5.192;2022-10-12T07:43:12;11.50;99.90
47384;DHT22;33129;52.232;5.192;2022-10-12T07:45:38;11.70;99.90
47384;DHT22;33129;52.232;5.192;2022-10-12T07:48:04;11.60;99.90
47384;DHT22;33129;52.232;5.192;2022-10-12T07:50:29;11.70;99.90
47384;DHT22;33129;52.232;5.192;2022-10-12T07:52:56;11.80;99.90
47384;DHT22;33129;52.232;5.192;2022-10-12T07:55:22;11.70;99.90
47384;DHT22;33129;52.232;5.192;2022-10-12T07:57:48;11.60;99.90
47384;DHT22;33129;52.232;5.192;2022-10-12T08:00:13;12.00;99.90
47384;DHT22;33129;52.232;5.192;2022-10-12T08:02:39;12.40;99.90
47384;DHT22;33129;52.232;5.192;2022-10-12T08:05:05;12.90;99.90
47384;DHT22;33129;52.232;5.192;2022-10-12T08:07:31;13.20;99.90
47384;DHT22;33129;52.232;5.192;2022-10-12T08:09:57;14.70;99.90
47384;DHT22;33129;52.232;5.192;2022-10-12T08:12:23;15.30;99.90
47384;DHT22;33129;52.232;5.192;2022-10-12T08:14:48;16.00;99.90
47384;DHT22;33129;52.232;5.192;2022-10-12T08:17:14;16.50;99.90
47384;DHT22;33129;52.232;5.192;2022-10-12T08:19:40;17.70;99.90
47384;DHT22;33129;52.232;5.192;2022-10-12T08:22:05;18.80;99.90
47384;DHT22;33129;52.232;5.192;2022-10-12T08:24:31;19.80;99.90
47384;DHT22;33129;52.232;5.192;2022-10-12T08:26:59;20.10;99.90
47384;DHT22;33129;52.232;5.192;2022-10-12T08:29:25;20.90;99.90
47384;DHT22;33129;52.232;5.192;2022-10-12T08:31:51;21.10;99.90
47384;DHT22;33129;52.232;5.192;2022-10-12T08:34:19;21.00;99.90
47384;DHT22;33129;52.232;5.192;2022-10-12T08:36:44;21.00;99.90
47384;DHT22;33129;52.232;5.192;2022-10-12T08:39:10;20.40;99.90
47384;DHT22;33129;52.232;5.192;2022-10-12T08:47:44;18.90;99.90
47384;DHT22;33129;52.232;5.192;2022-10-12T08:50:30;18.90;99.90
47384;DHT22;33129;52.232;5.192;2022-10-12T08:55:49;18.80;99.90
47384;DHT22;33129;52.232;5.192;2022-10-12T08:58:28;19.00;99.90
47384;DHT22;33129;52.232;5.192;2022-10-12T09:09:55;20.10;99.90
47384;DHT22;33129;52.232;5.192;2022-10-12T09:13:09;20.20;99.90
47384;DHT22;33129;52.232;5.192;2022-10-12T09:16:05;20.50;99.90
47384;DHT22;33129;52.232;5.192;2022-10-12T09:18:52;20.90;99.90
47384;DHT22;33129;52.232;5.192;2022-10-12T09:21:31;21.50;99.90
47384;DHT22;33129;52.232;5.192;2022-10-12T09:23:58;21.90;99.90
47384;DHT22;33129;52.232;5.192;2022-10-12T09:26:35;21.80;99.90
47384;DHT22;33129;52.232;5.192;2022-10-12T09:34:56;21.80;99.90
47384;DHT22;33129;52.232;5.192;2022-10-12T09:37:26;22.20;99.90
47384;DHT22;33129;52.232;5.192;2022-10-12T09:39:54;22.50;99.90
47384;DHT22;33129;52.232;5.192;2022-10-12T09:42:20;22.90;99.90
47384;DHT22;33129;52.232;5.192;2022-10-12T09:44:48;23.30;99.90
47384;DHT22;33129;52.232;5.192;2022-10-12T09:47:24;23.00;99.90
47384;DHT22;33129;52.232;5.192;2022-10-12T09:49:58;22.80;99.90
47384;DHT22;33129;52.232;5.192;2022-10-12T09:55:03;23.70;99.90
47384;DHT22;33129;52.232;5.192;2022-10-12T09:57:38;23.70;99.90
47384;DHT22;33129;52.232;5.192;2022-10-12T10:00:31;23.00;99.90
47384;DHT22;33129;52.232;5.192;2022-10-12T10:02:59;22.10;99.90
47384;DHT22;33129;52.232;5.192;2022-10-12T10:05:30;22.00;99.90
47384;DHT22;33129;52.232;5.192;2022-10-12T10:08:20;22.30;99.90
47384;DHT22;33129;52.232;5.192;2022-10-12T10:13:27;21.60;99.90
47384;DHT22;33129;52.232;5.192;2022-10-12T10:16:08;21.30;99.90
47384;DHT22;33129;52.232;5.192;2022-10-12T10:21:10;21.50;99.90
47384;DHT22;33129;52.232;5.192;2022-10-12T10:23:49;21.40;99.90
47384;DHT22;33129;52.232;5.192;2022-10-12T10:26:18;21.40;99.90
47384;DHT22;33129;52.232;5.192;2022-10-12T10:28:47;21.40;99.90
47384;DHT22;33129;52.232;5.192;2022-10-12T10:31:16;22.20;99.90
47384;DHT22;33129;52.232;5.192;2022-10-12T10:36:53;22.60;99.90
47384;DHT22;33129;52.232;5.192;2022-10-12T10:39:24;23.30;99.90
47384;DHT22;33129;52.232;5.192;2022-10-12T10:41:52;22.70;99.90
47384;DHT22;33129;52.232;5.192;2022-10-12T10:47:03;21.90;99.90
47384;DHT22;33129;52.232;5.192;2022-10-12T10:49:40;21.60;99.90
47384;DHT22;33129;52.232;5.192;2022-10-12T10:52:27;22.40;99.90
47384;DHT22;33129;52.232;5.192;2022-10-12T10:55:16;22.80;99.90
47384;DHT22;33129;52.232;5.192;2022-10-12T11:00:18;21.80;99.90
47384;DHT22;33129;52.232;5.192;2022-10-12T11:03:04;21.70;99.90
47384;DHT22;33129;52.232;5.192;2022-10-12T11:05:44;21.80;99.90
47384;DHT22;33129;52.232;5.192;2022-10-12T11:10:54;21.70;99.90
47384;DHT22;33129;52.232;5.192;2022-10-12T11:13:52;21.50;99.90
47384;DHT22;33129;52.232;5.192;2022-10-12T11:16:28;20.90;99.90
47384;DHT22;33129;52.232;5.192;2022-10-12T11:19:04;21.30;99.90
47384;DHT22;33129;52.232;5.192;2022-10-12T11:21:50;21.00;99.90
47384;DHT22;33129;52.232;5.192;2022-10-12T11:24:31;21.80;99.90
47384;DHT22;33129;52.232;5.192;2022-10-12T11:29:36;21.90;99.90
47384;DHT22;33129;52.232;5.192;2022-10-12T11:32:28;22.30;99.90
47384;DHT22;33129;52.232;5.192;2022-10-12T11:35:04;22.60;99.90
47384;DHT22;33129;52.232;5.192;2022-10-12T11:37:42;22.60;99.90
47384;DHT22;33129;52.232;5.192;2022-10-12T11:40:32;22.20;99.90
47384;DHT22;33129;52.232;5.192;2022-10-12T11:43:07;21.80;99.90
47384;DHT22;33129;52.232;5.192;2022-10-12T11:45:43;21.70;99.90
47384;DHT22;33129;52.232;5.192;2022-10-12T11:48:22;21.10;99.90
47384;DHT22;33129;52.232;5.192;2022-10-12T11:50:51;21.10;99.90
47384;DHT22;33129;52.232;5.192;2022-10-12T11:53:35;20.80;99.90
47384;DHT22;33129;52.232;5.192;2022-10-12T12:02:28;20.70;99.90
47384;DHT22;33129;52.232;5.192;2022-10-12T12:04:57;20.60;99.90
47384;DHT22;33129;52.232;5.192;2022-10-12T12:15:40;20.30;99.90
47384;DHT22;33129;52.232;5.192;2022-10-12T12:23:27;20.40;99.90
47384;DHT22;33129;52.232;5.192;2022-10-12T12:28:37;20.20;99.90
47384;DHT22;33129;52.232;5.192;2022-10-12T12:31:27;20.10;99.90
47384;DHT22;33129;52.232;5.192;2022-10-12T12:34:14;20.30;99.90
47384;DHT22;33129;52.232;5.192;2022-10-12T12:36:43;20.70;99.90
47384;DHT22;33129;52.232;5.192;2022-10-12T12:39:23;20.30;99.90
47384;DHT22;33129;52.232;5.192;2022-10-12T12:41:55;20.00;99.90
47384;DHT22;33129;52.232;5.192;2022-10-12T12:44:40;20.10;99.90
47384;DHT22;33129;52.232;5.192;2022-10-12T12:52:13;21.20;99.90
47384;DHT22;33129;52.232;5.192;2022-10-12T13:21:16;19.50;99.90
47384;DHT22;33129;52.232;5.192;2022-10-12T13:23:46;19.20;99.90
47384;DHT22;33129;52.232;5.192;2022-10-12T13:26:22;18.70;99.90
47384;DHT22;33129;52.232;5.192;2022-10-12T13:28:51;19.10;99.90
47384;DHT22;33129;52.232;5.192;2022-10-12T13:31:24;19.20;99.90
47384;DHT22;33129;52.232;5.192;2022-10-12T13:34:30;19.40;99.90
47384;DHT22;33129;52.232;5.192;2022-10-12T13:37:04;19.10;99.90
47384;DHT22;33129;52.232;5.192;2022-10-12T13:39:40;19.10;99.90
47384;DHT22;33129;52.232;5.192;2022-10-12T13:42:12;18.80;99.90
47384;DHT22;33129;52.232;5.192;2022-10-12T13:44:43;18.90;99.90
47384;DHT22;33129;52.232;5.192;2022-10-12T13:47:29;19.10;99.90
47384;DHT22;33129;52.232;5.192;2022-10-12T13:49:57;19.30;99.90
47384;DHT22;33129;52.232;5.192;2022-10-12T13:54:59;19.50;99.90
47384;DHT22;33129;52.232;5.192;2022-10-12T13:57:41;19.10;99.90
47384;DHT22;33129;52.232;5.192;2022-10-12T14:02:39;19.00;99.90
47384;DHT22;33129;52.232;5.192;2022-10-12T14:05:18;19.10;99.90
47384;DHT22;33129;52.232;5.192;2022-10-12T14:07:45;19.50;99.90
47384;DHT22;33129;52.232;5.192;2022-10-12T14:10:32;19.70;99.90
47384;DHT22;33129;52.232;5.192;2022-10-12T14:12:59;19.80;99.90
47384;DHT22;33129;52.232;5.192;2022-10-12T14:15:31;19.50;99.90
47384;DHT22;33129;52.232;5.192;2022-10-12T14:18:01;19.40;99.90
47384;DHT22;33129;52.232;5.192;2022-10-12T14:20:33;18.80;99.90
47384;DHT22;33129;52.232;5.192;2022-10-12T14:23:11;19.60;99.90
47384;DHT22;33129;52.232;5.192;2022-10-12T14:25:49;19.30;99.90
47384;DHT22;33129;52.232;5.192;2022-10-12T14:28:27;19.60;99.90
47384;DHT22;33129;52.232;5.192;2022-10-12T14:30:55;19.40;99.90
47384;DHT22;33129;52.232;5.192;2022-10-12T14:33:23;19.20;99.90
47384;DHT22;33129;52.232;5.192;2022-10-12T14:35:51;19.40;99.90
47384;DHT22;33129;52.232;5.192;2022-10-12T14:38:41;19.40;99.90
47384;DHT22;33129;52.232;5.192;2022-10-12T14:41:29;19.50;99.90
47384;DHT22;33129;52.232;5.192;2022-10-12T14:46:31;19.10;99.90
47384;DHT22;33129;52.232;5.192;2022-10-12T14:48:57;19.00;99.90
47384;DHT22;33129;52.232;5.192;2022-10-12T14:51:23;18.90;99.90
47384;DHT22;33129;52.232;5.192;2022-10-12T14:54:02;18.80;99.90
47384;DHT22;33129;52.232;5.192;2022-10-12T14:56:30;18.80;99.90
47384;DHT22;33129;52.232;5.192;2022-10-12T14:58:56;19.00;99.90
47384;DHT22;33129;52.232;5.192;2022-10-12T15:01:22;19.10;99.90
47384;DHT22;33129;52.232;5.192;2022-10-12T15:03:48;18.90;99.90
47384;DHT22;33129;52.232;5.192;2022-10-12T15:06:15;19.10;99.90
47384;DHT22;33129;52.232;5.192;2022-10-12T15:08:41;19.20;99.90
47384;DHT22;33129;52.232;5.192;2022-10-12T15:11:12;19.00;99.90
47384;DHT22;33129;52.232;5.192;2022-10-12T15:13:38;18.90;99.90
47384;DHT22;33129;52.232;5.192;2022-10-12T15:16:23;18.80;99.90
47384;DHT22;33129;52.232;5.192;2022-10-12T15:18:51;18.70;99.90
47384;DHT22;33129;52.232;5.192;2022-10-12T15:21:17;18.90;99.90
47384;DHT22;33129;52.232;5.192;2022-10-12T15:23:44;19.00;99.90
47384;DHT22;33129;52.232;5.192;2022-10-12T15:26:15;19.10;99.90
47384;DHT22;33129;52.232;5.192;2022-10-12T15:28:42;19.00;99.90
47384;DHT22;33129;52.232;5.192;2022-10-12T15:31:14;18.80;99.90
47384;DHT22;33129;52.232;5.192;2022-10-12T15:33:41;18.80;99.90
47384;DHT22;33129;52.232;5.192;2022-10-12T15:36:08;19.10;99.90
47384;DHT22;33129;52.232;5.192;2022-10-12T15:38:34;19.00;99.90
47384;DHT22;33129;52.232;5.192;2022-10-12T15:41:01;19.10;99.90
47384;DHT22;33129;52.232;5.192;2022-10-12T15:43:27;19.20;99.90
47384;DHT22;33129;52.232;5.192;2022-10-12T15:45:54;19.30;99.90
47384;DHT22;33129;52.232;5.192;2022-10-12T15:48:20;19.30;99.90
47384;DHT22;33129;52.232;5.192;2022-10-12T15:50:47;19.30;99.90
47384;DHT22;33129;52.232;5.192;2022-10-12T15:53:20;19.30;99.90
47384;DHT22;33129;52.232;5.192;2022-10-12T15:55:51;19.30;99.90
47384;DHT22;33129;52.232;5.192;2022-10-12T15:58:18;19.00;99.90
47384;DHT22;33129;52.232;5.192;2022-10-12T16:00:44;18.90;99.90
47384;DHT22;33129;52.232;5.192;2022-10-12T16:03:15;18.60;99.90
47384;DHT22;33129;52.232;5.192;2022-10-12T16:05:44;18.20;99.90
47384;DHT22;33129;52.232;5.192;2022-10-12T16:08:11;18.50;99.90
47384;DHT22;33129;52.232;5.192;2022-10-12T16:10:39;18.30;99.90
47384;DHT22;33129;52.232;5.192;2022-10-12T16:13:07;18.30;99.90
47384;DHT22;33129;52.232;5.192;2022-10-12T16:15:35;18.50;99.90
47384;DHT22;33129;52.232;5.192;2022-10-12T16:18:02;18.40;99.90
47384;DHT22;33129;52.232;5.192;2022-10-12T16:20:30;18.50;99.90
47384;DHT22;33129;52.232;5.192;2022-10-12T16:22:58;17.90;99.90
47384;DHT22;33129;52.232;5.192;2022-10-12T16:25:25;18.00;99.90
47384;DHT22;33129;52.232;5.192;2022-10-12T16:27:54;17.90;99.90
47384;DHT22;33129;52.232;5.192;2022-10-12T16:30:21;17.80;99.90
47384;DHT22;33129;52.232;5.192;2022-10-12T16:32:48;17.70;99.90
47384;DHT22;33129;52.232;5.192;2022-10-12T16:35:14;17.50;99.90
47384;DHT22;33129;52.232;5.192;2022-10-12T16:37:40;17.70;99.90
47384;DHT22;33129;52.232;5.192;2022-10-12T16:40:08;18.00;99.90
47384;DHT22;33129;52.232;5.192;2022-10-12T16:42:34;18.10;99.90
47384;DHT22;33129;52.232;5.192;2022-10-12T16:45:00;17.90;99.90
47384;DHT22;33129;52.232;5.192;2022-10-12T16:47:26;17.70;99.90
47384;DHT22;33129;52.232;5.192;2022-10-12T16:49:53;17.90;99.90
47384;DHT22;33129;52.232;5.192;2022-10-12T16:52:20;17.90;99.90
47384;DHT22;33129;52.232;5.192;2022-10-12T16:54:53;17.70;99.90
47384;DHT22;33129;52.232;5.192;2022-10-12T16:57:20;17.70;99.90
47384;DHT22;33129;52.232;5.192;2022-10-12T16:59:47;17.10;99.90
47384;DHT22;33129;52.232;5.192;2022-10-12T17:02:14;17.60;99.90
47384;DHT22;33129;52.232;5.192;2022-10-12T17:04:42;17.80;99.90
47384;DHT22;33129;52.232;5.192;2022-10-12T17:07:08;18.20;99.90
47384;DHT22;33129;52.232;5.192;2022-10-12T17:09:34;18.00;99.90
47384;DHT22;33129;52.232;5.192;2022-10-12T17:12:00;17.80;99.90
47384;DHT22;33129;52.232;5.192;2022-10-12T17:14:26;17.90;99.90
47384;DHT22;33129;52.232;5.192;2022-10-12T17:16:54;17.80;99.90
47384;DHT22;33129;52.232;5.192;2022-10-12T17:19:34;18.00;99.90
47384;DHT22;33129;52.232;5.192;2022-10-12T17:22:09;17.70;99.90
47384;DHT22;33129;52.232;5.192;2022-10-12T17:24:37;17.60;99.90
47384;DHT22;33129;52.232;5.192;2022-10-12T17:27:06;17.40;99.90
47384;DHT22;33129;52.232;5.192;2022-10-12T17:29:33;17.40;99.90
47384;DHT22;33129;52.232;5.192;2022-10-12T17:32:01;17.80;99.90
47384;DHT22;33129;52.232;5.192;2022-10-12T17:34:33;17.90;99.90
47384;DHT22;33129;52.232;5.192;2022-10-12T17:37:02;17.70;99.90
47384;DHT22;33129;52.232;5.192;2022-10-12T17:39:32;17.70;99.90
47384;DHT22;33129;52.232;5.192;2022-10-12T17:42:00;17.70;99.90
47384;DHT22;33129;52.232;5.192;2022-10-12T17:44:26;17.70;99.90
47384;DHT22;33129;52.232;5.192;2022-10-12T17:46:52;17.50;99.90
47384;DHT22;33129;52.232;5.192;2022-10-12T17:49:19;17.40;99.90
47384;DHT22;33129;52.232;5.192;2022-10-12T17:51:45;16.90;99.90
47384;DHT22;33129;52.232;5.192;2022-10-12T17:54:15;17.00;99.90
47384;DHT22;33129;52.232;5.192;2022-10-12T17:56:42;17.30;99.90
47384;DHT22;33129;52.232;5.192;2022-10-12T17:59:12;17.40;99.90
47384;DHT22;33129;52.232;5.192;2022-10-12T18:01:39;17.20;99.90
47384;DHT22;33129;52.232;5.192;2022-10-12T18:04:05;17.10;99.90